createdAt,value
2018-10-21T00:01:08.049Z,84.17
2018-10-21T00:03:36.190Z,84.57
2018-10-21T00:06:04.296Z,84.38
2018-10-21T00:08:32.370Z,84.66
2018-10-21T00:11:00.414Z,84.08
2018-10-21T00:13:28.449Z,83.78
2018-10-21T00:15:56.504Z,83.96
2018-10-21T00:18:24.657Z,83.92
2018-10-21T00:20:52.628Z,84.37
2018-10-21T00:23:20.744Z,84.35
2018-10-21T00:25:48.893Z,84.34
2018-10-21T00:28:16.972Z,84.40
2018-10-21T00:30:44.966Z,84.92
2018-10-21T00:33:13.163Z,84.39
2018-10-21T00:35:41.141Z,84.72
2018-10-21T00:38:09.165Z,84.58
2018-10-21T00:40:37.203Z,84.86
2018-10-21T00:43:05.496Z,84.79
2018-10-21T00:45:33.695Z,84.58
2018-10-21T00:48:01.832Z,84.94
2018-10-21T00:50:29.898Z,85.11
2018-10-21T00:52:57.924Z,85.56
2018-10-21T00:55:26.234Z,84.86
2018-10-21T00:57:54.339Z,85.80
2018-10-21T01:00:22.431Z,85.99
2018-10-21T01:02:50.518Z,86.39
2018-10-21T01:05:18.560Z,85.89
2018-10-21T01:07:46.811Z,87.08
2018-10-21T01:10:14.874Z,86.83
2018-10-21T01:12:42.930Z,86.15
2018-10-21T01:15:12.169Z,85.73
2018-10-21T01:17:40.336Z,86.22
2018-10-21T01:20:10.724Z,86.52
2018-10-21T01:22:38.917Z,86.04
2018-10-21T01:25:07.954Z,86.63
2018-10-21T01:27:36.180Z,86.90
2018-10-21T01:30:05.221Z,86.43
2018-10-21T01:32:33.290Z,86.52
2018-10-21T01:35:01.371Z,86.94
2018-10-21T01:37:29.606Z,86.25
2018-10-21T01:41:01.116Z,86.17
2018-10-21T01:43:30.386Z,86.71
2018-10-21T01:45:58.825Z,86.71
2018-10-21T01:48:30.685Z,86.97
2018-10-21T01:50:58.763Z,87.28
2018-10-21T01:53:26.870Z,87.01
2018-10-21T01:55:55.034Z,86.27
2018-10-21T01:58:23.076Z,86.99
2018-10-21T02:00:51.234Z,86.64
2018-10-21T02:03:19.383Z,87.06
2018-10-21T02:05:47.875Z,87.62
2018-10-21T02:08:15.925Z,86.35
2018-10-21T02:10:43.994Z,86.17
2018-10-21T02:13:12.109Z,86.51
2018-10-21T02:15:40.133Z,86.91
2018-10-21T02:18:08.216Z,86.26
2018-10-21T02:20:36.356Z,86.91
2018-10-21T02:23:04.573Z,86.28
2018-10-21T02:25:32.810Z,87.31
2018-10-21T02:28:00.877Z,87.34
2018-10-21T02:30:30.124Z,87.89
2018-10-21T02:32:58.829Z,88.05
2018-10-21T02:35:26.929Z,88.42
2018-10-21T02:37:55.530Z,88.19
2018-10-21T02:41:40.972Z,88.01
2018-10-21T02:44:10.209Z,89.15
2018-10-21T02:46:39.046Z,88.89
2018-10-21T02:49:08.020Z,89.07
2018-10-21T02:51:36.269Z,89.85
2018-10-21T02:54:04.833Z,89.68
2018-10-21T02:56:32.927Z,89.35
2018-10-21T02:59:00.997Z,89.36
2018-10-21T03:01:29.235Z,89.58
2018-10-21T03:03:57.419Z,89.57
2018-10-21T03:06:25.759Z,89.11
2018-10-21T03:08:53.859Z,89.26
2018-10-21T03:11:22.035Z,89.36
2018-10-21T03:13:50.180Z,89.59
2018-10-21T03:16:18.443Z,89.26
2018-10-21T03:18:47.104Z,89.02
2018-10-21T03:21:15.901Z,89.91
2018-10-21T03:23:44.675Z,90.43
2018-10-21T03:26:13.107Z,91.06
2018-10-21T03:28:41.621Z,91.28
2018-10-21T03:31:10.468Z,91.31
2018-10-21T03:33:39.182Z,91.10
2018-10-21T03:36:07.606Z,91.02
2018-10-21T03:38:36.218Z,90.35
2018-10-21T03:41:04.968Z,90.63
2018-10-21T03:43:33.447Z,91.08
2018-10-21T03:46:02.120Z,91.49
2018-10-21T03:48:30.617Z,91.35
2018-10-21T03:50:59.291Z,91.59
2018-10-21T03:53:27.750Z,92.00
2018-10-21T03:55:56.485Z,91.39
2018-10-21T03:58:24.897Z,92.30
2018-10-21T04:00:53.211Z,92.35
2018-10-21T04:03:21.418Z,92.16
2018-10-21T04:05:49.589Z,91.10
2018-10-21T04:08:17.720Z,91.23
2018-10-21T04:10:45.741Z,92.57
2018-10-21T04:13:13.955Z,92.03
2018-10-21T04:15:42.491Z,93.36
2018-10-21T04:18:10.654Z,93.39
2018-10-21T04:20:38.948Z,93.33
2018-10-21T04:23:07.136Z,94.43
2018-10-21T04:25:36.701Z,95.06
2018-10-21T04:28:05.682Z,95.15
2018-10-21T04:30:36.251Z,94.21
2018-10-21T04:33:10.593Z,95.57
2018-10-21T04:35:39.345Z,94.54
2018-10-21T04:39:21.685Z,93.94
2018-10-21T04:41:50.356Z,95.15
2018-10-21T04:44:18.968Z,94.74
2018-10-21T04:46:47.821Z,93.77
2018-10-21T04:49:16.398Z,93.99
2018-10-21T04:51:45.071Z,94.87
2018-10-21T04:54:13.443Z,95.48
2018-10-21T04:56:42.112Z,95.43
2018-10-21T04:59:11.180Z,94.77
2018-10-21T05:01:39.940Z,94.55
2018-10-21T05:04:08.802Z,94.52
2018-10-21T05:06:37.163Z,94.06
2018-10-21T05:09:06.485Z,94.40
2018-10-21T05:11:35.199Z,94.40
2018-10-21T05:14:03.874Z,94.12
2018-10-21T05:16:32.353Z,93.30
2018-10-21T05:19:00.850Z,93.47
2018-10-21T05:21:29.618Z,93.03
2018-10-21T05:23:58.275Z,92.96
2018-10-21T05:26:26.811Z,92.24
2018-10-21T05:28:55.594Z,93.21
2018-10-21T05:31:24.297Z,93.52
2018-10-21T05:33:53.073Z,92.63
2018-10-21T05:36:21.602Z,93.18
2018-10-21T05:38:50.216Z,91.31
2018-10-21T05:41:19.435Z,91.22
2018-10-21T05:43:48.430Z,91.05
2018-10-21T05:46:53.435Z,91.09
2018-10-21T05:49:22.363Z,90.89
2018-10-21T05:51:51.728Z,90.84
2018-10-21T05:54:21.759Z,90.49
2018-10-21T05:56:51.191Z,89.66
2018-10-21T05:59:19.985Z,89.93
2018-10-21T06:01:49.457Z,89.83
2018-10-21T06:04:18.416Z,89.57
2018-10-21T06:06:47.022Z,89.44
2018-10-21T06:09:15.860Z,89.18
2018-10-21T06:11:44.732Z,89.27
2018-10-21T06:14:13.758Z,88.71
2018-10-21T06:17:52.275Z,89.09
2018-10-21T06:20:24.529Z,88.68
2018-10-21T06:22:53.772Z,88.51
2018-10-21T06:25:22.467Z,88.86
2018-10-21T06:27:51.083Z,88.17
2018-10-21T06:30:19.998Z,86.95
2018-10-21T06:32:49.050Z,86.41
2018-10-21T06:35:18.132Z,86.35
2018-10-21T06:37:47.233Z,86.65
2018-10-21T06:40:15.985Z,85.82
2018-10-21T06:42:44.919Z,86.32
2018-10-21T06:45:14.327Z,86.20
2018-10-21T06:47:43.112Z,84.39
2018-10-21T06:50:18.323Z,83.54
2018-10-21T06:52:47.416Z,82.92
2018-10-21T06:55:16.022Z,83.08
2018-10-21T06:57:45.395Z,82.89
2018-10-21T07:00:14.087Z,82.30
2018-10-21T07:02:42.728Z,82.29
2018-10-21T07:05:23.006Z,82.94
2018-10-21T07:07:51.930Z,82.52
2018-10-21T07:10:21.149Z,83.17
2018-10-21T07:12:50.362Z,84.19
2018-10-21T07:15:19.479Z,83.28
2018-10-21T07:17:48.348Z,82.98
2018-10-21T07:20:17.102Z,83.08
2018-10-21T07:22:45.864Z,82.16
2018-10-21T07:25:14.547Z,81.78
2018-10-21T07:27:43.824Z,82.51
2018-10-21T07:30:13.363Z,81.66
2018-10-21T07:32:42.982Z,79.93
2018-10-21T07:35:14.221Z,80.49
2018-10-21T07:37:43.526Z,78.81
2018-10-21T07:40:13.721Z,79.39
2018-10-21T07:42:42.450Z,78.87
2018-10-21T07:45:11.344Z,77.69
2018-10-21T07:47:40.308Z,77.16
2018-10-21T07:50:08.933Z,77.58
2018-10-21T07:52:37.504Z,76.30
2018-10-21T07:55:05.981Z,76.68
2018-10-21T07:57:34.837Z,76.70
2018-10-21T08:00:03.613Z,75.73
2018-10-21T08:02:32.531Z,75.32
2018-10-21T08:05:01.426Z,74.59
2018-10-21T08:07:41.160Z,74.65
2018-10-21T08:10:10.078Z,73.53
2018-10-21T08:12:38.637Z,73.27
2018-10-21T08:15:07.978Z,73.35
2018-10-21T08:17:36.788Z,72.58
2018-10-21T08:20:06.120Z,70.97
2018-10-21T08:22:34.824Z,72.16
2018-10-21T08:25:03.851Z,72.63
2018-10-21T08:27:32.678Z,73.41
2018-10-21T08:30:01.698Z,72.68
2018-10-21T08:32:31.028Z,71.59
2018-10-21T08:35:00.735Z,72.80
2018-10-21T08:37:29.582Z,72.14
2018-10-21T08:39:59.085Z,72.37
2018-10-21T08:42:28.090Z,73.03
2018-10-21T08:44:56.728Z,72.56
2018-10-21T08:47:26.724Z,72.23
2018-10-21T08:49:56.135Z,73.19
2018-10-21T08:52:25.061Z,73.43
2018-10-21T08:54:54.096Z,73.92
2018-10-21T08:57:23.502Z,73.49
2018-10-21T08:59:52.322Z,73.21
2018-10-21T09:02:21.090Z,73.30
2018-10-21T09:04:50.107Z,73.85
2018-10-21T09:07:19.184Z,73.60
2018-10-21T09:09:48.194Z,74.50
2018-10-21T09:12:16.896Z,74.69
2018-10-21T09:14:46.565Z,75.73
2018-10-21T09:17:15.750Z,75.32
2018-10-21T09:19:44.856Z,74.85
2018-10-21T09:22:14.324Z,75.51
2018-10-21T09:24:43.586Z,76.27
2018-10-21T09:27:13.348Z,75.07
2018-10-21T09:29:42.915Z,75.82
2018-10-21T09:32:11.982Z,75.17
2018-10-21T09:34:41.133Z,76.28
2018-10-21T09:37:10.531Z,75.26
2018-10-21T09:39:42.887Z,75.84
2018-10-21T09:42:11.959Z,74.84
2018-10-21T09:44:40.764Z,74.14
2018-10-21T09:47:09.445Z,74.06
2018-10-21T09:49:38.855Z,74.30
2018-10-21T09:52:07.903Z,74.39
2018-10-21T09:54:36.853Z,73.79
2018-10-21T09:57:06.044Z,74.82
2018-10-21T09:59:34.973Z,74.08
2018-10-21T10:02:09.085Z,73.44
2018-10-21T10:04:38.375Z,73.47
2018-10-21T10:07:07.496Z,72.98
2018-10-21T10:09:39.191Z,72.56
2018-10-21T10:12:08.993Z,73.23
2018-10-21T10:14:37.613Z,72.70
2018-10-21T10:17:06.293Z,71.76
2018-10-21T10:19:34.901Z,71.63
2018-10-21T10:22:03.532Z,72.33
2018-10-21T10:24:32.086Z,70.46
2018-10-21T10:27:00.902Z,70.59
2018-10-21T10:29:30.895Z,70.82
2018-10-21T10:32:00.117Z,70.37
2018-10-21T10:34:28.665Z,70.00
2018-10-21T10:36:57.664Z,69.50
2018-10-21T10:39:26.199Z,69.81
2018-10-21T10:41:54.872Z,68.77
2018-10-21T10:44:23.359Z,68.83
2018-10-21T10:46:51.925Z,69.77
2018-10-21T10:49:20.704Z,68.87
2018-10-21T10:51:49.347Z,70.05
2018-10-21T10:54:17.966Z,70.25
2018-10-21T10:56:46.058Z,69.60
2018-10-21T10:59:14.185Z,69.55
2018-10-21T11:01:42.716Z,70.91
2018-10-21T11:04:10.790Z,70.90
2018-10-21T11:06:39.295Z,70.41
2018-10-21T11:09:09.203Z,71.33
2018-10-21T11:11:37.442Z,70.92
2018-10-21T11:14:05.954Z,71.43
2018-10-21T11:16:34.248Z,71.15
2018-10-21T11:19:02.524Z,71.85
2018-10-21T11:21:30.739Z,71.44
2018-10-21T11:23:59.013Z,71.45
2018-10-21T11:26:27.227Z,71.23
2018-10-21T11:28:55.645Z,71.18
2018-10-21T11:31:24.046Z,69.99
2018-10-21T11:33:52.445Z,70.27
2018-10-21T11:36:20.964Z,70.56
2018-10-21T11:38:49.497Z,70.17
2018-10-21T11:41:17.591Z,69.83
2018-10-21T11:43:45.717Z,70.65
2018-10-21T11:46:14.514Z,70.86
2018-10-21T11:48:42.854Z,70.44
2018-10-21T11:51:12.051Z,70.24
2018-10-21T11:53:40.375Z,70.91
2018-10-21T11:56:08.668Z,71.26
2018-10-21T11:58:37.348Z,73.19
2018-10-21T12:01:06.192Z,73.11
2018-10-21T12:03:34.836Z,73.59
2018-10-21T12:06:03.473Z,74.50
2018-10-21T12:08:33.830Z,75.61
2018-10-21T12:11:04.894Z,74.19
2018-10-21T12:13:36.960Z,74.40
2018-10-21T12:16:05.974Z,73.31
2018-10-21T12:18:34.468Z,73.14
2018-10-21T12:21:03.794Z,73.12
2018-10-21T12:23:32.936Z,72.94
2018-10-21T12:26:02.158Z,73.24
2018-10-21T12:28:31.449Z,74.11
2018-10-21T12:31:00.868Z,74.56
2018-10-21T12:33:31.866Z,75.01
2018-10-21T12:36:00.633Z,74.63
2018-10-21T12:38:29.052Z,74.04
2018-10-21T12:40:57.468Z,73.58
2018-10-21T12:43:26.042Z,73.81
2018-10-21T12:45:54.570Z,74.21
2018-10-21T12:48:23.106Z,74.72
2018-10-21T12:50:51.820Z,74.74
2018-10-21T12:53:20.324Z,74.27
2018-10-21T12:55:50.313Z,73.76
2018-10-21T12:58:19.265Z,72.98
2018-10-21T13:00:47.938Z,73.49
2018-10-21T13:03:16.612Z,72.58
2018-10-21T13:05:45.232Z,73.03
2018-10-21T13:08:13.711Z,72.32
2018-10-21T13:10:42.020Z,72.42
2018-10-21T13:13:10.864Z,73.47
2018-10-21T13:15:39.446Z,73.87
2018-10-21T13:18:09.631Z,74.00
2018-10-21T13:20:38.366Z,73.11
2018-10-21T13:23:06.980Z,72.73
2018-10-21T13:25:36.056Z,72.83
2018-10-21T13:28:05.143Z,73.35
2018-10-21T13:30:35.212Z,74.28
2018-10-21T13:33:03.820Z,74.26
2018-10-21T13:35:32.000Z,74.53
2018-10-21T13:38:00.320Z,74.24
2018-10-21T13:40:28.807Z,74.63
2018-10-21T13:42:57.131Z,75.03
2018-10-21T13:45:25.378Z,75.24
2018-10-21T13:47:53.691Z,76.32
2018-10-21T13:50:21.898Z,76.03
2018-10-21T13:52:50.333Z,75.76
2018-10-21T13:55:18.798Z,76.18
2018-10-21T13:57:47.130Z,75.77
2018-10-21T14:00:15.577Z,75.46
2018-10-21T14:02:43.789Z,74.95
2018-10-21T14:05:12.120Z,74.99
2018-10-21T14:07:40.535Z,75.19
2018-10-21T14:10:09.244Z,75.32
2018-10-21T14:12:37.539Z,74.46
2018-10-21T14:15:06.281Z,74.22
2018-10-21T14:17:34.657Z,74.75
2018-10-21T14:20:03.070Z,74.29
2018-10-21T14:22:31.504Z,75.22
2018-10-21T14:25:00.218Z,75.53
2018-10-21T14:27:28.485Z,75.48
2018-10-21T14:29:57.140Z,75.92
2018-10-21T14:32:25.596Z,76.46
2018-10-21T14:34:53.923Z,76.31
2018-10-21T14:37:22.239Z,76.15
2018-10-21T14:39:50.765Z,75.65
2018-10-21T14:42:19.391Z,76.20
2018-10-21T14:44:47.754Z,76.24
2018-10-21T14:47:16.115Z,76.71
2018-10-21T14:49:44.804Z,76.81
2018-10-21T14:52:13.383Z,77.28
2018-10-21T14:54:42.139Z,77.17
2018-10-21T14:57:10.624Z,77.52
2018-10-21T14:59:39.773Z,77.64
2018-10-21T15:02:09.465Z,77.37
2018-10-21T15:04:38.850Z,77.70
2018-10-21T15:07:07.355Z,77.64
2018-10-21T15:09:35.738Z,77.65
2018-10-21T15:12:04.339Z,78.16
2018-10-21T15:14:33.114Z,77.87
2018-10-21T15:17:02.566Z,77.99
2018-10-21T15:19:31.522Z,77.92
2018-10-21T15:21:59.726Z,77.95
2018-10-21T15:24:28.035Z,78.02
2018-10-21T15:26:57.812Z,77.32
2018-10-21T15:29:26.281Z,77.73
2018-10-21T15:31:54.627Z,77.69
2018-10-21T15:34:22.855Z,78.01
2018-10-21T15:36:52.243Z,78.81
2018-10-21T15:39:22.601Z,78.52
2018-10-21T15:41:52.895Z,79.53
2018-10-21T15:44:23.413Z,78.70
2018-10-21T15:46:51.960Z,78.48
2018-10-21T15:49:20.194Z,79.42
2018-10-21T15:51:48.649Z,79.25
2018-10-21T15:54:16.908Z,80.08
2018-10-21T15:56:45.410Z,79.48
2018-10-21T15:59:14.404Z,80.27
2018-10-21T16:01:43.645Z,80.18
2018-10-21T16:04:11.958Z,80.12
2018-10-21T16:06:40.500Z,80.33
2018-10-21T16:09:12.350Z,80.44
2018-10-21T16:11:41.898Z,80.51
2018-10-21T16:14:11.645Z,80.86
2018-10-21T16:16:41.374Z,80.31
2018-10-21T16:19:10.443Z,80.79
2018-10-21T16:21:39.014Z,80.10
2018-10-21T16:24:07.213Z,80.15
2018-10-21T16:26:35.543Z,80.71
2018-10-21T16:29:03.845Z,80.76
2018-10-21T16:31:32.032Z,80.72
2018-10-21T16:34:00.290Z,80.12
2018-10-21T16:36:28.364Z,80.85
2018-10-21T16:38:56.770Z,80.54
2018-10-21T16:41:27.276Z,80.93
2018-10-21T16:43:55.403Z,80.77
2018-10-21T16:46:23.821Z,81.12
2018-10-21T16:48:52.049Z,81.29
2018-10-21T16:51:20.361Z,81.31
2018-10-21T16:53:48.768Z,81.50
2018-10-21T16:56:16.991Z,81.55
2018-10-21T16:58:45.262Z,81.48
2018-10-21T17:01:13.796Z,81.25
2018-10-21T17:03:43.227Z,81.35
2018-10-21T17:06:11.536Z,81.25
2018-10-21T17:08:39.913Z,81.70
2018-10-21T17:11:09.257Z,82.05
2018-10-21T17:13:37.666Z,81.70
2018-10-21T17:16:08.673Z,81.89
2018-10-21T17:18:37.090Z,82.27
2018-10-21T17:21:07.372Z,81.78
2018-10-21T17:23:36.101Z,82.27
2018-10-21T17:26:04.604Z,82.01
2018-10-21T17:28:32.982Z,82.54
2018-10-21T17:31:01.937Z,82.59
2018-10-21T17:33:30.667Z,82.46
2018-10-21T17:35:58.956Z,82.69
2018-10-21T17:38:27.226Z,82.46
2018-10-21T17:40:55.768Z,82.53
2018-10-21T17:43:24.400Z,82.90
2018-10-21T17:45:52.681Z,82.99
2018-10-21T17:48:20.924Z,82.54
2018-10-21T17:50:49.047Z,82.90
2018-10-21T17:53:17.574Z,82.30
2018-10-21T17:55:46.492Z,82.99
2018-10-21T17:58:15.019Z,82.80
2018-10-21T18:00:43.424Z,83.11
2018-10-21T18:03:11.623Z,82.94
2018-10-21T18:05:39.864Z,82.95
2018-10-21T18:08:08.245Z,83.63
2018-10-21T18:10:36.778Z,84.05
2018-10-21T18:13:05.271Z,83.57
2018-10-21T18:15:33.536Z,83.74
2018-10-21T18:18:01.710Z,83.29
2018-10-21T18:20:30.119Z,83.37
2018-10-21T18:22:58.521Z,83.49
2018-10-21T18:25:26.733Z,84.02
2018-10-21T18:27:55.157Z,83.42
2018-10-21T18:30:23.387Z,84.00
2018-10-21T18:32:51.735Z,83.57
2018-10-21T18:35:20.045Z,84.01
2018-10-21T18:37:48.532Z,83.48
2018-10-21T18:40:17.317Z,83.48
2018-10-21T18:42:45.582Z,83.80
2018-10-21T18:45:14.769Z,83.79
2018-10-21T18:47:43.573Z,83.99
2018-10-21T18:50:13.202Z,84.27
2018-10-21T18:52:41.868Z,83.98
2018-10-21T18:55:12.567Z,84.33
2018-10-21T18:57:43.569Z,84.13
2018-10-21T19:00:15.108Z,84.34
2018-10-21T19:02:43.590Z,84.36
2018-10-21T19:05:12.351Z,84.52
2018-10-21T19:07:40.400Z,84.13
2018-10-21T19:10:12.424Z,83.64
2018-10-21T19:12:42.474Z,83.75
2018-10-21T19:15:13.160Z,83.34
2018-10-21T19:17:41.690Z,84.19
2018-10-21T19:20:12.443Z,83.91
2018-10-21T19:22:40.917Z,83.77
2018-10-21T19:25:10.751Z,84.28
2018-10-21T19:27:39.283Z,84.14
2018-10-21T19:30:08.467Z,83.77
2018-10-21T19:32:36.954Z,83.46
2018-10-21T19:35:05.985Z,83.26
2018-10-21T19:37:34.718Z,83.31
2018-10-21T19:40:05.011Z,83.59
2018-10-21T19:42:33.790Z,83.35
2018-10-21T19:45:02.267Z,83.55
2018-10-21T19:47:31.118Z,84.09
2018-10-21T19:49:59.807Z,84.12
2018-10-21T19:52:28.252Z,84.18
2018-10-21T19:54:57.756Z,83.10
2018-10-21T19:57:27.132Z,83.69
2018-10-21T19:59:56.439Z,83.63
2018-10-21T20:02:25.047Z,83.62
2018-10-21T20:04:53.608Z,82.73
2018-10-21T20:07:22.171Z,83.63
2018-10-21T20:09:50.781Z,83.20
2018-10-21T20:12:19.285Z,83.23
2018-10-21T20:14:47.711Z,83.92
2018-10-21T20:17:16.288Z,84.07
2018-10-21T20:19:45.066Z,84.34
2018-10-21T20:22:14.110Z,84.67
2018-10-21T20:24:42.870Z,84.23
2018-10-21T20:27:11.406Z,84.66
2018-10-21T20:29:40.056Z,85.06
2018-10-21T20:32:08.774Z,85.00
2018-10-21T20:34:37.381Z,86.19
2018-10-21T20:37:06.093Z,85.90
2018-10-21T20:39:34.670Z,86.34
2018-10-21T20:42:03.280Z,86.34
2018-10-21T20:44:31.839Z,86.56
2018-10-21T20:47:00.231Z,87.53
2018-10-21T20:49:28.902Z,86.37
2018-10-21T20:51:57.447Z,86.93
2018-10-21T20:54:30.156Z,87.41
2018-10-21T20:57:01.338Z,87.64
2018-10-21T20:59:29.874Z,87.75
2018-10-21T21:01:58.390Z,88.29
2018-10-21T21:04:27.003Z,88.37
2018-10-21T21:06:55.610Z,88.16
2018-10-21T21:09:24.911Z,88.43
2018-10-21T21:11:53.941Z,89.53
2018-10-21T21:14:22.558Z,89.95
2018-10-21T21:16:50.999Z,90.71
2018-10-21T21:19:19.617Z,89.83
2018-10-21T21:21:48.137Z,89.84
2018-10-21T21:24:17.045Z,89.44
2018-10-21T21:26:45.775Z,90.74
2018-10-21T21:29:14.303Z,90.08
2018-10-21T21:31:46.190Z,90.10
2018-10-21T21:34:15.671Z,90.15
2018-10-21T21:36:44.311Z,89.68
2018-10-21T21:39:13.978Z,90.09
2018-10-21T21:41:43.583Z,90.90
2018-10-21T21:44:12.082Z,91.00
2018-10-21T21:46:41.118Z,90.39
2018-10-21T21:49:11.505Z,90.52
2018-10-21T21:51:39.976Z,92.22
2018-10-21T21:54:10.320Z,91.55
2018-10-21T21:56:38.933Z,92.51
2018-10-21T21:59:08.367Z,91.59
2018-10-21T22:01:36.765Z,92.44
2018-10-21T22:04:05.455Z,91.00
2018-10-21T22:06:33.729Z,91.84
2018-10-21T22:09:02.111Z,91.68
2018-10-21T22:11:30.760Z,91.93
2018-10-21T22:13:59.752Z,92.34
2018-10-21T22:16:28.326Z,91.34
2018-10-21T22:18:56.616Z,91.63
2018-10-21T22:21:25.275Z,91.12
2018-10-21T22:23:53.919Z,91.38
2018-10-21T22:26:22.206Z,90.92
2018-10-21T22:28:50.728Z,90.71
2018-10-21T22:31:19.381Z,90.52
2018-10-21T22:33:47.787Z,91.41
2018-10-21T22:36:16.415Z,91.08
2018-10-21T22:38:44.909Z,91.51
2018-10-21T22:41:13.349Z,92.00
2018-10-21T22:43:41.964Z,91.33
2018-10-21T22:46:10.551Z,91.63
2018-10-21T22:48:38.687Z,91.71
2018-10-21T22:51:07.424Z,91.65
2018-10-21T22:53:35.684Z,92.12
2018-10-21T22:56:04.223Z,91.24
2018-10-21T22:58:32.813Z,91.44
2018-10-21T23:01:01.202Z,91.41
2018-10-21T23:03:29.685Z,91.88
2018-10-21T23:05:58.355Z,91.53
2018-10-21T23:08:26.661Z,91.54
2018-10-21T23:10:55.108Z,92.56
2018-10-21T23:13:23.698Z,91.64
2018-10-21T23:15:52.193Z,91.69
2018-10-21T23:18:20.795Z,92.19
2018-10-21T23:20:49.133Z,92.14
2018-10-21T23:23:17.739Z,92.29
2018-10-21T23:25:46.376Z,91.80
2018-10-21T23:28:15.114Z,92.25
2018-10-21T23:30:43.594Z,91.90
2018-10-21T23:33:12.063Z,92.24
2018-10-21T23:35:40.546Z,92.00
2018-10-21T23:38:09.010Z,92.19
2018-10-21T23:40:37.486Z,91.19
2018-10-21T23:43:05.897Z,91.71
2018-10-21T23:45:34.495Z,92.05
2018-10-21T23:48:03.071Z,92.02
2018-10-21T23:50:31.434Z,92.07
2018-10-21T23:53:00.081Z,91.83
2018-10-21T23:55:28.291Z,92.50
2018-10-21T23:57:56.810Z,92.67
